Time;durP1;ratioP1;P1;durP2;ratioP2;P2;SDS_P1;SDS_P2;PMS_P1;PMS_P2;Temp;Humidity;BMP_temperature;BMP_pressure;BME280_temperature;BME280_humidity;BME280_pressure;Samples;Min_cycle;Max_cycle;Signal;HPM_P1;HPM_P2
2023/02/26 00:00:07;;;;;;;2.17;1.00;;;;;;;-0.43;71.80;100768.94;5043541;28;20228;-78
2023/02/26 00:02:33;;;;;;;3.03;0.80;;;;;;;-0.47;71.90;100769.88;5042565;28;20710;-78
2023/02/26 00:05:00;;;;;;;2.07;0.90;;;;;;;-0.50;72.19;100772.53;5044238;28;20243;-78
2023/02/26 00:07:29;;;;;;;3.73;0.97;;;;;;;-0.52;72.31;100775.19;5044449;28;20206;-78
2023/02/26 00:09:57;;;;;;;1.53;0.80;;;;;;;-0.54;72.28;100778.75;5044758;28;20197;-78
2023/02/26 00:12:53;;;;;;;2.13;0.97;;;;;;;-0.54;73.05;100781.34;5048521;28;20678;-78
2023/02/26 00:15:43;;;;;;;5.50;1.77;;;;;;;-0.56;72.88;100785.75;5042047;28;20359;-78
2023/02/26 00:18:16;;;;;;;2.93;0.87;;;;;;;-0.57;73.36;100791.88;5046694;28;20225;-78
2023/02/26 00:20:44;;;;;;;4.17;1.30;;;;;;;-0.58;73.13;100795.38;5044864;28;20199;-78
2023/02/26 00:23:13;;;;;;;3.00;1.40;;;;;;;-0.58;73.46;100797.97;5046612;28;20240;-77
2023/02/26 00:25:39;;;;;;;2.70;1.13;;;;;;;-0.60;73.88;100810.22;5042089;28;20198;-78
2023/02/26 00:28:06;;;;;;;3.00;1.17;;;;;;;-0.60;73.71;100811.09;5045913;28;20206;-78
2023/02/26 00:30:34;;;;;;;1.80;1.03;;;;;;;-0.60;74.08;100811.09;5046507;28;20202;-78
2023/02/26 00:33:03;;;;;;;3.23;1.20;;;;;;;-0.60;73.99;100811.09;5051173;28;20230;-78
2023/02/26 00:35:31;;;;;;;1.87;1.13;;;;;;;-0.59;73.94;100825.03;5048635;28;20236;-77
2023/02/26 00:38:01;;;;;;;4.90;1.10;;;;;;;-0.58;74.22;100826.75;5046921;28;20244;-78
2023/02/26 00:40:36;;;;;;;1.93;1.10;;;;;;;-0.60;74.09;100832.00;5045901;28;20650;-78
2023/02/26 00:43:05;;;;;;;3.27;1.20;;;;;;;-0.57;74.25;100831.97;5045630;28;20233;-78
2023/02/26 00:45:34;;;;;;;2.33;1.23;;;;;;;-0.58;74.50;100831.97;5048479;28;20740;-78
2023/02/26 00:48:25;;;;;;;2.63;1.23;;;;;;;-0.58;74.35;100837.22;5048245;28;20285;-78
2023/02/26 00:50:59;;;;;;;3.57;1.17;;;;;;;-0.58;74.61;100837.22;5043623;28;20607;-78
2023/02/26 00:53:31;;;;;;;2.20;0.93;;;;;;;-0.59;74.81;100848.56;5047902;28;20689;-78
2023/02/26 00:55:59;;;;;;;2.23;1.20;;;;;;;-0.59;74.83;100845.94;5047344;28;20699;-78
2023/02/26 00:58:26;;;;;;;5.70;1.30;;;;;;;-0.60;74.92;100842.47;5043164;28;20226;-78
2023/02/26 01:00:52;;;;;;;1.77;1.10;;;;;;;-0.60;75.13;100845.09;5043538;28;20210;-78
2023/02/26 01:03:20;;;;;;;3.30;1.00;;;;;;;-0.61;75.42;100853.81;5046633;28;20242;-78
2023/02/26 01:05:47;;;;;;;2.50;1.10;;;;;;;-0.61;75.58;100852.94;5047044;28;20201;-78
2023/02/26 01:08:19;;;;;;;3.47;0.90;;;;;;;-0.61;75.77;100852.94;5047303;28;20209;-78
2023/02/26 01:10:46;;;;;;;1.90;1.10;;;;;;;-0.62;76.06;100862.53;5048771;28;20208;-77
2023/02/26 01:13:13;;;;;;;3.07;1.00;;;;;;;-0.64;76.17;100855.59;5047007;28;20289;-78
2023/02/26 01:15:44;;;;;;;3.10;1.40;;;;;;;-0.62;76.53;100856.44;5046835;28;20288;-78
2023/02/26 01:18:14;;;;;;;3.57;1.20;;;;;;;-0.63;76.57;100865.19;5048455;28;20214;-78
2023/02/26 01:20:47;;;;;;;5.07;1.23;;;;;;;-0.64;76.97;100863.44;5046549;28;20202;-78
2023/02/26 01:23:16;;;;;;;2.90;0.97;;;;;;;-0.67;77.20;100866.97;5042851;28;20260;-78
2023/02/26 01:25:50;;;;;;;3.57;1.20;;;;;;;-0.67;77.00;100861.75;5045588;28;20202;-78
2023/02/26 01:28:16;;;;;;;2.80;1.00;;;;;;;-0.68;77.18;100857.41;5047173;28;20209;-78
2023/02/26 01:30:44;;;;;;;4.37;1.10;;;;;;;-0.70;77.42;100865.25;5051032;28;20220;-77
2023/02/26 01:33:17;;;;;;;2.13;0.90;;;;;;;-0.71;77.79;100860.03;5048998;28;20713;-78
2023/02/26 01:35:48;;;;;;;4.03;1.50;;;;;;;-0.71;77.82;100862.66;5041080;28;20212;-77
2023/02/26 01:38:24;;;;;;;3.90;1.20;;;;;;;-0.70;78.07;100872.25;5049128;28;20257;-78
2023/02/26 01:41:24;;;;;;;2.50;1.20;;;;;;;-0.71;78.29;100868.75;5053838;28;20228;-78
2023/02/26 01:44:03;;;;;;;8.03;1.20;;;;;;;-0.70;78.19;100872.25;5047885;28;20287;-78
2023/02/26 01:46:36;;;;;;;3.30;0.90;;;;;;;-0.73;78.62;100874.94;5047506;28;20228;-78
2023/02/26 01:49:03;;;;;;;2.10;0.70;;;;;;;-0.74;79.01;100881.03;5055349;28;20202;-78
2023/02/26 01:51:52;;;;;;;2.10;0.83;;;;;;;-0.74;78.76;100889.75;5054671;28;20212;-78
2023/02/26 01:54:21;;;;;;;1.00;0.60;;;;;;;-0.75;79.06;100884.53;5053602;28;20248;-78
2023/02/26 01:56:52;;;;;;;4.10;0.90;;;;;;;-0.77;79.61;100895.00;5054805;28;20221;-78
2023/02/26 01:59:23;;;;;;;2.00;0.83;;;;;;;-0.77;79.64;100894.16;5052378;28;20229;-78
2023/02/26 02:01:51;;;;;;;3.23;1.00;;;;;;;-0.79;80.05;100898.53;5053683;28;20205;-78
2023/02/26 02:04:19;;;;;;;4.87;1.00;;;;;;;-0.80;79.92;100905.50;5047675;28;20229;-78
2023/02/26 02:06:46;;;;;;;2.30;0.80;;;;;;;-0.80;79.67;100904.66;5050835;28;20670;-78
2023/02/26 02:09:14;;;;;;;2.03;0.97;;;;;;;-0.82;80.34;100911.63;5050291;28;20198;-78
2023/02/26 02:11:56;;;;;;;2.53;0.70;;;;;;;-0.84;80.36;100913.41;5044823;28;20214;-78
2023/02/26 02:14:31;;;;;;;5.83;1.20;;;;;;;-0.85;80.59;100916.91;5046382;28;20249;-78
2023/02/26 02:17:02;;;;;;;2.67;0.90;;;;;;;-0.85;80.37;100919.50;5050296;28;20208;-78
2023/02/26 02:20:05;;;;;;;2.20;0.80;;;;;;;-0.85;80.90;100919.50;5052180;28;20697;-78
2023/02/26 02:22:53;;;;;;;0.80;0.60;;;;;;;-0.87;81.08;100919.53;5050423;28;20221;-78
2023/02/26 02:25:40;;;;;;;3.43;1.10;;;;;;;-0.87;81.07;100921.28;5047950;28;20213;-78
2023/02/26 02:28:20;;;;;;;3.17;1.03;;;;;;;-0.88;81.07;100928.25;5051234;28;20209;-78
2023/02/26 02:31:02;;;;;;;3.30;0.90;;;;;;;-0.88;81.48;100928.25;5051782;28;20613;-78
2023/02/26 02:33:34;;;;;;;1.97;0.80;;;;;;;-0.89;81.70;100936.97;5047648;28;20249;-78
2023/02/26 02:36:06;;;;;;;3.87;1.30;;;;;;;-0.90;81.91;100939.66;5052376;28;20209;-78
2023/02/26 02:38:36;;;;;;;2.33;1.10;;;;;;;-0.89;81.77;100936.97;5053214;28;20240;-78
2023/02/26 02:41:07;;;;;;;2.77;0.87;;;;;;;-0.88;81.78;100940.47;5051130;28;20205;-78
2023/02/26 02:43:37;;;;;;;4.00;1.00;;;;;;;-0.90;82.08;100950.09;5051585;28;20311;-78
2023/02/26 02:46:07;;;;;;;1.90;0.87;;;;;;;-0.89;82.14;100962.25;5049113;28;20240;-78
2023/02/26 02:48:38;;;;;;;1.97;1.00;;;;;;;-0.93;82.46;100958.84;5053501;28;20678;-78
2023/02/26 02:51:10;;;;;;;3.80;1.23;;;;;;;-0.96;83.18;100968.47;5050359;28;20218;-78
2023/02/26 02:53:42;;;;;;;2.57;0.73;;;;;;;-0.99;83.27;100964.13;5049168;28;20616;-78
2023/02/26 02:56:16;;;;;;;4.90;0.90;;;;;;;-1.00;83.42;100957.16;5050565;28;20619;-78
2023/02/26 02:58:46;;;;;;;0.70;0.60;;;;;;;-1.01;83.64;100963.28;5050680;28;20229;-78
2023/02/26 03:01:18;;;;;;;1.77;0.80;;;;;;;-1.01;83.87;100965.03;5048271;28;20669;-78
2023/02/26 03:03:52;;;;;;;2.93;0.70;;;;;;;-1.01;83.77;100973.75;5050908;28;20245;-78
2023/02/26 03:06:18;;;;;;;4.37;1.13;;;;;;;-1.01;83.95;100973.75;5051181;28;20216;-77
2023/02/26 03:08:47;;;;;;;2.20;0.97;;;;;;;-1.01;84.17;100976.34;5054756;28;20198;-78
2023/02/26 03:11:14;;;;;;;2.83;0.93;;;;;;;-1.00;84.27;100974.59;5047388;28;20452;-78
2023/02/26 03:13:41;;;;;;;3.23;1.27;;;;;;;-0.99;84.35;100978.94;5051223;28;20222;-78
2023/02/26 03:16:20;;;;;;;3.37;1.00;;;;;;;-0.99;84.29;100986.78;5050408;28;20214;-78
2023/02/26 03:18:53;;;;;;;4.93;1.00;;;;;;;-0.98;85.00;100978.06;5046851;28;20222;-78
2023/02/26 03:21:33;;;;;;;3.27;1.10;;;;;;;-0.98;84.54;100981.56;5051945;28;20205;-78
2023/02/26 03:24:06;;;;;;;2.10;1.00;;;;;;;-0.95;84.88;100985.88;5049947;28;20233;-78
2023/02/26 03:26:39;;;;;;;2.70;1.00;;;;;;;-0.94;84.81;100990.22;5046093;28;20210;-78
2023/02/26 03:29:12;;;;;;;4.23;1.50;;;;;;;-0.95;84.89;100994.59;5044061;28;20205;-78
2023/02/26 03:31:49;;;;;;;3.43;1.70;;;;;;;-0.94;84.90;100996.31;5045582;28;20609;-78
2023/02/26 03:34:19;;;;;;;3.13;1.10;;;;;;;-0.91;84.79;101006.75;5044969;28;20229;-78
2023/02/26 03:36:51;;;;;;;2.97;1.20;;;;;;;-0.90;85.13;101005.88;5051571;28;20197;-78
2023/02/26 03:39:21;;;;;;;3.73;1.00;;;;;;;-0.90;85.48;101013.72;5050754;28;20777;-78
2023/02/26 03:41:55;;;;;;;4.90;1.17;;;;;;;-0.88;85.13;101011.94;5052277;28;20205;-78
2023/02/26 03:44:28;;;;;;;2.83;0.93;;;;;;;-0.88;85.15;101017.16;5051357;28;20229;-78
2023/02/26 03:46:59;;;;;;;4.70;1.27;;;;;;;-0.87;85.17;101018.03;5045634;28;20580;-78
2023/02/26 03:49:30;;;;;;;8.87;1.30;;;;;;;-0.88;85.15;101019.78;5047678;28;20205;-78
2023/02/26 03:51:59;;;;;;;2.40;1.00;;;;;;;-0.88;85.63;101016.28;5051899;28;20822;-78
2023/02/26 03:54:31;;;;;;;5.13;1.20;;;;;;;-0.88;85.02;101027.63;5053754;28;20221;-78
2023/02/26 03:56:57;;;;;;;1.53;1.00;;;;;;;-0.89;85.72;101035.47;5053846;28;20210;-78
2023/02/26 03:59:24;;;;;;;4.37;1.13;;;;;;;-0.90;85.92;101039.88;5046092;28;20222;-78
2023/02/26 04:01:55;;;;;;;4.70;1.43;;;;;;;-0.87;85.43;101036.31;5053481;28;20205;-78
2023/02/26 04:04:28;;;;;;;6.20;1.20;;;;;;;-0.88;85.85;101037.19;5049903;28;20229;-77
2023/02/26 04:06:55;;;;;;;3.17;0.90;;;;;;;-0.87;85.62;101050.25;5048472;28;20670;-78
2023/02/26 04:09:22;;;;;;;3.13;1.00;;;;;;;-0.88;85.61;101048.53;5052839;28;20665;-78
2023/02/26 04:11:51;;;;;;;3.93;0.93;;;;;;;-0.86;85.89;101049.38;5048800;28;20214;-78
2023/02/26 04:14:17;;;;;;;1.77;1.30;;;;;;;-0.88;86.11;101061.59;5048236;28;20229;-78
2023/02/26 04:16:45;;;;;;;2.37;0.93;;;;;;;-0.87;86.22;101059.84;5049657;28;20200;-78
2023/02/26 04:19:12;;;;;;;3.70;1.10;;;;;;;-0.87;86.15;101072.94;5048805;28;20229;-78
2023/02/26 04:21:40;;;;;;;1.47;0.80;;;;;;;-0.89;86.33;101070.31;5044111;28;20206;-78
2023/02/26 04:24:06;;;;;;;1.80;0.93;;;;;;;-0.90;86.49;101068.63;5044332;28;20708;-78
2023/02/26 04:26:33;;;;;;;3.83;0.90;;;;;;;-0.88;86.07;101079.03;5047048;28;20755;-78
2023/02/26 04:28:59;;;;;;;1.57;0.90;;;;;;;-0.89;85.98;101083.41;5049264;28;20213;-78
2023/02/26 04:31:26;;;;;;;2.27;0.80;;;;;;;-0.88;86.13;101079.91;5050583;28;20208;-78
2023/02/26 04:33:52;;;;;;;2.27;0.70;;;;;;;-0.91;85.96;101079.97;5050052;28;20222;-78
2023/02/26 04:36:20;;;;;;;4.47;0.60;;;;;;;-0.88;85.91;101089.50;5060820;22;20270;-72
2023/02/26 04:38:47;;;;;;;2.53;0.67;;;;;;;-0.90;85.76;101097.38;5006027;28;20202;-70
2023/02/26 04:41:14;;;;;;;1.67;0.63;;;;;;;-0.91;85.81;101098.28;5003398;28;20211;-70
2023/02/26 04:43:40;;;;;;;4.40;0.93;;;;;;;-0.92;86.09;101104.38;5007107;28;20295;-70
2023/02/26 04:46:07;;;;;;;2.97;0.90;;;;;;;-0.93;86.01;101102.63;5007627;28;20227;-70
2023/02/26 04:48:33;;;;;;;3.23;0.90;;;;;;;-0.90;85.63;101113.06;5008847;28;20708;-70
2023/02/26 04:51:03;;;;;;;1.60;0.90;;;;;;;-0.91;85.98;101119.19;5006587;28;20213;-70
2023/02/26 04:53:29;;;;;;;6.40;0.80;;;;;;;-0.94;85.72;101111.38;5007221;28;20238;-70
2023/02/26 04:55:57;;;;;;;4.60;1.23;;;;;;;-0.94;85.37;101113.09;5006769;28;20227;-70
2023/02/26 04:58:23;;;;;;;3.03;0.80;;;;;;;-0.94;85.34;101116.59;5005733;28;20226;-70
2023/02/26 05:00:51;;;;;;;1.93;0.90;;;;;;;-0.95;85.52;101124.44;5010008;28;20227;-70
2023/02/26 05:03:17;;;;;;;1.50;0.50;;;;;;;-0.96;85.08;101122.72;5006543;28;20207;-70
2023/02/26 05:05:45;;;;;;;2.93;1.00;;;;;;;-0.97;84.95;101119.22;5005299;28;20222;-70
2023/02/26 05:08:12;;;;;;;2.77;0.80;;;;;;;-0.95;84.99;101120.09;5007224;28;20219;-70
2023/02/26 05:10:38;;;;;;;2.47;0.70;;;;;;;-0.94;84.59;101127.06;5003318;28;20281;-70
2023/02/26 05:13:06;;;;;;;1.63;0.60;;;;;;;-0.94;84.78;101124.44;5007578;28;20219;-70
2023/02/26 05:15:33;;;;;;;3.93;0.73;;;;;;;-0.93;84.79;101135.75;5007921;28;20222;-70
2023/02/26 05:18:00;;;;;;;1.20;0.63;;;;;;;-0.93;84.85;101134.00;5005774;28;20614;-70
2023/02/26 05:20:26;;;;;;;2.50;1.00;;;;;;;-0.93;84.90;101139.25;5003942;28;20594;-70
2023/02/26 05:22:53;;;;;;;2.30;0.87;;;;;;;-0.94;84.64;101134.91;5006929;28;20211;-70
2023/02/26 05:25:20;;;;;;;5.17;1.27;;;;;;;-0.94;84.71;101142.75;5006943;28;20760;-70
2023/02/26 05:27:46;;;;;;;1.50;0.50;;;;;;;-0.96;84.49;101144.50;5002406;28;20214;-70
2023/02/26 05:30:16;;;;;;;1.47;0.63;;;;;;;-0.95;84.76;101158.44;5004618;28;20634;-70
2023/02/26 05:32:42;;;;;;;4.57;1.13;;;;;;;-0.95;84.36;101155.81;5004981;28;20662;-70
2023/02/26 05:35:10;;;;;;;2.13;0.60;;;;;;;-0.95;84.24;101151.47;5005911;28;20230;-70
2023/02/26 05:37:36;;;;;;;1.53;0.83;;;;;;;-0.94;83.69;101162.78;5005974;28;20246;-70
2023/02/26 05:40:04;;;;;;;2.67;1.03;;;;;;;-0.95;83.71;101161.91;5004008;28;20238;-70
2023/02/26 05:42:30;;;;;;;2.73;0.70;;;;;;;-0.94;83.57;101170.63;5002557;28;20203;-70
2023/02/26 05:44:57;;;;;;;1.87;0.87;;;;;;;-0.94;83.91;101173.25;5005125;28;20222;-70
2023/02/26 05:47:25;;;;;;;3.40;0.73;;;;;;;-0.94;83.55;101168.88;5004972;28;20230;-70
2023/02/26 05:49:52;;;;;;;2.13;0.60;;;;;;;-0.94;83.15;101175.84;5007107;28;20613;-70
2023/02/26 05:52:19;;;;;;;1.77;0.70;;;;;;;-0.94;83.42;101184.56;5001640;28;20209;-70
2023/02/26 05:54:45;;;;;;;1.30;0.50;;;;;;;-0.95;83.06;101189.81;5002871;28;20226;-71
2023/02/26 05:57:11;;;;;;;1.97;0.80;;;;;;;-0.95;82.87;101195.03;5007365;28;20215;-70
2023/02/26 05:59:38;;;;;;;1.90;0.60;;;;;;;-0.95;82.82;101195.91;5007445;28;20203;-70
2023/02/26 06:02:04;;;;;;;1.73;0.60;;;;;;;-0.98;81.99;101206.38;5004475;28;20242;-70
2023/02/26 06:04:32;;;;;;;3.07;1.13;;;;;;;-0.97;82.47;101208.13;5005436;28;20249;-70
2023/02/26 06:06:59;;;;;;;2.90;1.40;;;;;;;-0.97;82.03;101205.50;5006723;28;20207;-70
2023/02/26 06:09:25;;;;;;;7.87;1.00;;;;;;;-0.98;81.71;101214.22;5004761;28;20207;-70
2023/02/26 06:11:52;;;;;;;1.53;0.70;;;;;;;-1.00;81.33;101220.34;5004439;28;21430;-70
2023/02/26 06:14:18;;;;;;;2.90;0.70;;;;;;;-1.00;81.64;101223.81;5007693;28;20213;-70
2023/02/26 06:16:45;;;;;;;1.27;0.53;;;;;;;-1.02;80.83;101227.31;5005089;28;20223;-70
2023/02/26 06:19:11;;;;;;;2.30;0.57;;;;;;;-1.07;80.79;101235.19;4999042;28;20222;-70
2023/02/26 06:21:39;;;;;;;4.33;0.70;;;;;;;-1.04;80.71;101229.94;5003735;28;20211;-70
2023/02/26 06:24:06;;;;;;;2.43;0.90;;;;;;;-1.07;80.58;101236.06;5004750;28;20203;-70
2023/02/26 06:26:33;;;;;;;4.27;0.53;;;;;;;-1.07;80.72;101245.63;5010216;28;20309;-70
2023/02/26 06:29:00;;;;;;;1.90;0.60;;;;;;;-1.06;80.63;101250.00;5010826;28;20211;-70
2023/02/26 06:31:26;;;;;;;1.90;0.47;;;;;;;-1.08;80.44;101247.41;5007692;28;20245;-70
2023/02/26 06:33:53;;;;;;;1.90;0.57;;;;;;;-1.10;80.24;101262.25;5010427;28;20203;-70
2023/02/26 06:36:19;;;;;;;4.07;0.70;;;;;;;-1.13;80.80;101257.03;5008611;28;20231;-70
2023/02/26 06:38:47;;;;;;;0.83;0.40;;;;;;;-1.12;80.20;101263.13;5010505;28;20209;-70
2023/02/26 06:41:13;;;;;;;1.03;0.40;;;;;;;-1.17;80.31;101265.75;5007417;28;20206;-70
2023/02/26 06:43:40;;;;;;;2.27;0.50;;;;;;;-1.20;79.72;101270.13;5008624;28;20216;-70
2023/02/26 06:46:06;;;;;;;2.13;0.90;;;;;;;-1.19;79.99;101277.09;5009310;28;20230;-70
2023/02/26 06:48:33;;;;;;;3.07;0.70;;;;;;;-1.19;79.60;101283.19;5008355;28;20214;-70
2023/02/26 06:50:59;;;;;;;1.03;0.40;;;;;;;-1.18;79.87;101277.09;5008117;28;20241;-70
2023/02/26 06:53:26;;;;;;;2.00;0.60;;;;;;;-1.18;79.78;101277.09;5007994;28;20210;-70
2023/02/26 06:55:54;;;;;;;3.23;0.60;;;;;;;-1.19;79.80;101288.41;5008219;28;20625;-70
2023/02/26 06:58:21;;;;;;;2.93;0.50;;;;;;;-1.19;79.97;101293.63;5006200;28;20218;-71
2023/02/26 07:00:47;;;;;;;1.93;0.53;;;;;;;-1.23;79.54;101294.53;5009245;28;20232;-70
2023/02/26 07:03:16;;;;;;;1.13;0.50;;;;;;;-1.25;79.29;101304.13;5008902;28;20206;-70
2023/02/26 07:05:43;;;;;;;2.07;0.67;;;;;;;-1.25;79.61;101298.88;5008527;28;20238;-70
2023/02/26 07:08:10;;;;;;;1.07;0.60;;;;;;;-1.24;79.58;101300.63;5007481;28;20697;-70
2023/02/26 07:10:37;;;;;;;1.37;0.60;;;;;;;-1.26;79.60;101314.59;5005585;28;20227;-70
2023/02/26 07:13:05;;;;;;;1.67;0.67;;;;;;;-1.26;79.34;101327.66;5008444;28;20217;-70
2023/02/26 07:15:32;;;;;;;1.80;1.00;;;;;;;-1.27;79.34;101325.94;5007073;28;20253;-70
2023/02/26 07:17:58;;;;;;;1.83;0.90;;;;;;;-1.28;79.48;101335.50;5006592;28;20565;-70
2023/02/26 07:20:25;;;;;;;1.37;0.70;;;;;;;-1.31;79.18;101340.75;5009638;28;20843;-70
2023/02/26 07:22:51;;;;;;;2.47;0.83;;;;;;;-1.31;79.37;101345.09;5008117;28;20222;-70
2023/02/26 07:25:18;;;;;;;1.67;0.80;;;;;;;-1.31;79.28;101350.31;5003572;28;20234;-70
2023/02/26 07:27:45;;;;;;;2.43;0.70;;;;;;;-1.31;79.23;101352.94;5006921;28;20207;-69
2023/02/26 07:30:14;;;;;;;1.97;0.70;;;;;;;-1.32;79.13;101356.44;5009477;28;20234;-70
2023/02/26 07:32:40;;;;;;;2.07;0.50;;;;;;;-1.31;79.05;101363.38;5007932;28;20207;-70
2023/02/26 07:35:07;;;;;;;1.00;0.60;;;;;;;-1.32;78.85;101366.88;5008197;28;20237;-70
2023/02/26 07:37:33;;;;;;;1.70;0.83;;;;;;;-1.32;79.10;101372.09;5007515;28;20226;-70
2023/02/26 07:40:00;;;;;;;2.87;0.70;;;;;;;-1.29;78.90;101369.47;5008909;28;20207;-71
2023/02/26 07:42:26;;;;;;;0.97;0.37;;;;;;;-1.24;79.30;101372.94;5010347;28;20218;-70
2023/02/26 07:44:53;;;;;;;1.10;0.60;;;;;;;-1.20;79.08;101383.38;5008000;28;20227;-70
2023/02/26 07:47:21;;;;;;;1.33;0.40;;;;;;;-1.18;78.50;101379.00;5003918;28;20207;-70
2023/02/26 07:49:47;;;;;;;3.03;1.00;;;;;;;-1.15;78.00;101383.38;5008320;28;20230;-70
2023/02/26 07:52:14;;;;;;;5.87;1.10;;;;;;;-1.12;78.35;101388.59;5006492;28;20203;-70
2023/02/26 07:54:40;;;;;;;2.90;1.00;;;;;;;-1.08;78.49;101396.41;5006834;28;20671;-70
2023/02/26 07:57:06;;;;;;;1.60;0.67;;;;;;;-1.03;78.61;101395.50;5008415;28;20215;-70
2023/02/26 07:59:33;;;;;;;1.13;0.57;;;;;;;-0.94;78.58;101398.09;5006718;28;20214;-70
2023/02/26 08:02:00;;;;;;;1.23;0.30;;;;;;;-0.85;77.83;101401.53;4999420;28;20682;-70
2023/02/26 08:04:27;;;;;;;2.30;0.63;;;;;;;-0.82;77.81;101401.50;5001090;28;20215;-71
2023/02/26 08:06:56;;;;;;;2.00;0.80;;;;;;;-0.73;77.77;101404.09;5000254;28;20230;-70
2023/02/26 08:09:22;;;;;;;3.70;0.70;;;;;;;-0.64;77.55;101412.75;5002880;28;20689;-69
2023/02/26 08:11:49;;;;;;;2.47;0.80;;;;;;;-0.54;77.63;101409.22;5004322;28;20223;-70
2023/02/26 08:14:16;;;;;;;4.53;0.90;;;;;;;-0.42;77.42;101420.47;5002856;28;20215;-70
2023/02/26 08:16:42;;;;;;;1.07;0.43;;;;;;;-0.35;75.92;101416.94;5004000;28;20610;-70
2023/02/26 08:19:09;;;;;;;1.20;0.63;;;;;;;-0.31;75.67;101422.16;5005320;28;20681;-70
2023/02/26 08:21:37;;;;;;;2.73;0.70;;;;;;;-0.26;75.76;101421.25;5003155;28;20218;-70
2023/02/26 08:24:03;;;;;;;1.80;0.50;;;;;;;-0.12;75.70;101432.50;5003725;28;20895;-70
2023/02/26 08:26:30;;;;;;;1.70;0.43;;;;;;;0.01;75.29;101433.25;5000779;28;20251;-71
2023/02/26 08:28:56;;;;;;;2.70;0.70;;;;;;;0.14;75.31;101434.06;5001745;28;20697;-70
2023/02/26 08:31:23;;;;;;;1.93;0.97;;;;;;;0.26;74.99;101441.81;4999097;28;20231;-70
2023/02/26 08:33:49;;;;;;;3.20;0.80;;;;;;;0.38;74.71;101441.69;5000621;28;20207;-70
2023/02/26 08:36:15;;;;;;;3.17;1.10;;;;;;;0.50;74.17;101441.59;5003278;28;20241;-70
2023/02/26 08:38:43;;;;;;;1.93;0.60;;;;;;;0.63;74.04;101452.81;4999657;28;20682;-70
2023/02/26 08:41:10;;;;;;;0.50;0.40;;;;;;;0.75;72.77;101451.81;5005131;28;20199;-71
2023/02/26 08:43:36;;;;;;;3.40;0.90;;;;;;;0.85;72.73;101458.72;5003830;28;20230;-71
2023/02/26 08:46:03;;;;;;;6.20;2.23;;;;;;;0.97;72.02;101463.81;5002336;28;20699;-71
2023/02/26 08:48:29;;;;;;;1.10;0.60;;;;;;;1.09;71.63;101468.03;5003254;28;20733;-71
2023/02/26 08:50:56;;;;;;;1.17;0.73;;;;;;;1.13;70.21;101473.25;5002555;28;20710;-71
2023/02/26 08:53:22;;;;;;;2.50;0.60;;;;;;;1.20;70.25;101485.41;5000148;28;20203;-70
2023/02/26 08:55:51;;;;;;;1.30;0.70;;;;;;;1.28;69.25;101486.19;4999775;28;21247;-70
2023/02/26 08:58:19;;;;;;;1.43;0.90;;;;;;;1.34;69.20;101491.38;4999411;28;20214;-70
2023/02/26 09:00:46;;;;;;;4.37;0.83;;;;;;;1.42;68.78;101498.28;5000902;28;20214;-71
2023/02/26 09:03:13;;;;;;;3.73;1.00;;;;;;;1.47;68.14;101497.31;5004764;28;20207;-71
2023/02/26 09:05:39;;;;;;;1.63;0.60;;;;;;;1.60;68.67;101495.44;5002931;28;20234;-71
2023/02/26 09:08:06;;;;;;;3.33;0.80;;;;;;;1.72;68.36;101504.00;5003291;28;20206;-71
2023/02/26 09:10:33;;;;;;;1.00;0.60;;;;;;;1.83;67.84;101514.34;5005057;28;20258;-71
2023/02/26 09:13:01;;;;;;;1.80;0.60;;;;;;;1.89;66.72;101511.66;5005517;28;20214;-70
2023/02/26 09:15:27;;;;;;;1.63;0.70;;;;;;;1.96;66.05;101517.69;5004876;28;20312;-71
2023/02/26 09:17:54;;;;;;;2.40;0.60;;;;;;;2.02;66.25;101520.22;5003506;28;20203;-71
2023/02/26 09:20:20;;;;;;;2.50;0.50;;;;;;;2.08;65.84;101510.50;5000976;28;20211;-70
2023/02/26 09:22:47;;;;;;;2.30;0.60;;;;;;;2.15;65.60;101513.88;5006228;28;20211;-71
2023/02/26 09:25:14;;;;;;;3.07;0.60;;;;;;;2.16;64.19;101514.75;5002269;28;20226;-71
2023/02/26 09:27:40;;;;;;;4.47;1.33;;;;;;;2.18;64.47;101513.84;5006251;28;20239;-70
2023/02/26 09:30:09;;;;;;;2.37;0.80;;;;;;;2.22;64.21;101517.31;4998874;28;20608;-71
2023/02/26 09:32:36;;;;;;;0.40;0.40;;;;;;;2.25;63.33;101528.63;5000710;28;20230;-71
2023/02/26 09:35:04;;;;;;;1.80;0.80;;;;;;;2.31;63.55;101527.69;4999384;28;20606;-71
2023/02/26 09:37:30;;;;;;;1.67;0.60;;;;;;;2.33;63.01;101531.16;5003356;28;20206;-71
2023/02/26 09:39:57;;;;;;;0.23;0.23;;;;;;;2.35;61.66;101529.34;4999101;28;20249;-71
2023/02/26 09:42:34;;;;;;;1.87;0.60;;;;;;;2.37;61.46;101528.44;4999929;28;20210;-70
2023/02/26 09:45:01;;;;;;;1.37;0.77;;;;;;;2.36;60.98;101531.09;4999336;28;20238;-71
2023/02/26 09:47:38;;;;;;;2.27;0.60;;;;;;;2.38;60.94;101534.56;5000903;28;20966;-71
2023/02/26 09:50:10;;;;;;;2.37;0.57;;;;;;;2.42;61.56;101539.75;5000003;28;20557;-71
2023/02/26 09:52:41;;;;;;;0.97;0.50;;;;;;;2.50;61.45;101546.69;4998314;28;20235;-71
2023/02/26 09:55:15;;;;;;;0.60;0.40;;;;;;;2.51;60.53;101532.63;4994675;28;20231;-71
2023/02/26 09:57:44;;;;;;;0.97;0.50;;;;;;;2.54;61.02;101538.69;4999586;28;20203;-71
2023/02/26 10:00:23;;;;;;;1.90;0.57;;;;;;;2.61;60.25;101539.47;5002475;28;20790;-71
2023/02/26 10:03:00;;;;;;;1.07;0.50;;;;;;;2.66;60.25;101540.28;5004910;28;20250;-71
2023/02/26 10:05:36;;;;;;;1.23;0.67;;;;;;;2.72;60.40;101551.53;5003645;28;20234;-71
2023/02/26 10:08:06;;;;;;;0.67;0.40;;;;;;;2.79;60.37;101552.31;5001118;28;20202;-71
2023/02/26 10:10:45;;;;;;;0.60;0.53;;;;;;;2.78;59.75;101546.19;5004161;28;20588;-71
2023/02/26 10:13:23;;;;;;;1.50;0.50;;;;;;;2.75;59.04;101551.50;5003926;28;20214;-71
2023/02/26 10:15:51;;;;;;;1.93;0.80;;;;;;;2.75;59.09;101545.34;5001728;28;20222;-71
2023/02/26 10:18:23;;;;;;;3.10;0.60;;;;;;;2.76;59.69;101555.84;4996786;28;20207;-71
2023/02/26 10:20:56;;;;;;;2.50;0.57;;;;;;;2.77;59.82;101557.59;5003527;28;20315;-71
2023/02/26 10:23:28;;;;;;;1.97;0.70;;;;;;;2.81;59.76;101560.19;4999479;28;20249;-71
2023/02/26 10:26:01;;;;;;;0.83;0.40;;;;;;;2.84;59.63;101568.91;5004373;28;20227;-71
2023/02/26 10:28:53;;;;;;;2.23;1.10;;;;;;;2.91;59.82;101569.63;4999584;28;20207;-71
2023/02/26 10:31:26;;;;;;;1.70;0.70;;;;;;;2.94;59.54;101565.19;4998849;28;20230;-71
2023/02/26 10:34:02;;;;;;;1.53;0.70;;;;;;;2.99;58.93;101567.75;5000224;28;20631;-71
2023/02/26 10:36:35;;;;;;;0.97;0.40;;;;;;;3.08;59.24;101567.59;5000084;28;20237;-71
2023/02/26 10:39:03;;;;;;;3.60;0.73;;;;;;;3.13;58.48;101563.97;4998201;28;20199;-71
2023/02/26 10:41:33;;;;;;;2.33;0.50;;;;;;;3.14;57.55;101567.47;5000240;28;20254;-71
2023/02/26 10:44:05;;;;;;;0.80;0.43;;;;;;;3.12;56.47;101564.88;5004035;28;20781;-71
2023/02/26 10:46:41;;;;;;;3.20;0.57;;;;;;;3.10;56.73;101573.69;5005485;28;20228;-71
2023/02/26 10:49:36;;;;;;;2.57;0.50;;;;;;;3.16;56.63;101575.34;5000724;28;20625;-71
2023/02/26 10:52:15;;;;;;;2.60;0.53;;;;;;;3.24;56.86;101579.56;5043909;22;20310;-72
2023/02/26 10:54:51;;;;;;;1.00;0.30;;;;;;;3.30;55.87;101578.59;5046026;28;20193;-70
2023/02/26 10:57:24;;;;;;;2.53;0.93;;;;;;;3.30;55.98;101584.72;5042724;28;20201;-70
2023/02/26 10:59:50;;;;;;;2.27;0.77;;;;;;;3.34;55.62;101588.19;5043873;28;20217;-72
2023/02/26 11:02:34;;;;;;;2.37;0.50;;;;;;;3.35;54.68;101598.69;5042251;28;20221;-71
2023/02/26 11:05:04;;;;;;;0.70;0.40;;;;;;;3.40;54.56;101593.34;5042859;28;20287;-67
2023/02/26 11:07:32;;;;;;;2.40;0.50;;;;;;;3.36;52.80;101589.88;5041104;28;20205;-71
2023/02/26 11:10:00;;;;;;;0.30;0.30;;;;;;;3.35;53.29;101590.78;5040315;28;20205;-71
2023/02/26 11:12:27;;;;;;;1.27;0.47;;;;;;;3.37;52.33;101603.94;5039772;28;20255;-70
2023/02/26 11:14:54;;;;;;;1.27;0.40;;;;;;;3.41;52.06;101602.94;5045168;28;20209;-68
2023/02/26 11:17:26;;;;;;;1.23;0.40;;;;;;;3.46;52.29;101599.34;5043952;28;20808;-70
2023/02/26 11:19:57;;;;;;;0.60;0.40;;;;;;;3.54;51.93;101603.59;5048766;28;20209;-72
2023/02/26 11:22:29;;;;;;;3.30;0.50;;;;;;;3.57;51.86;101600.91;5040254;28;20224;-68
2023/02/26 11:24:57;;;;;;;0.40;0.20;;;;;;;3.57;51.59;101598.28;5045038;28;20198;-73
2023/02/26 11:27:30;;;;;;;1.53;0.40;;;;;;;3.60;50.31;101604.34;5043020;28;20205;-67
2023/02/26 11:29:59;;;;;;;0.57;0.40;;;;;;;3.58;49.81;101603.53;5040858;28;20198;-69
2023/02/26 11:32:30;;;;;;;0.70;0.40;;;;;;;3.57;49.71;101606.19;5040901;28;20230;-70
2023/02/26 11:34:57;;;;;;;1.20;0.50;;;;;;;3.57;49.91;101612.31;5043290;28;20207;-69
2023/02/26 11:37:28;;;;;;;4.37;0.50;;;;;;;3.59;50.02;101601.72;5046819;28;20754;-68